x

Southeast Bering Sea -205nm Wnw Of Dutch Harbor, Ak (46073) Wave Buoy

1:50 - Sat 25th Oct 2014 All times are UTC.

  • Sig Wave height 5.9ft
  • Swell Direction
  • Peak Period 10s
  • Average Period 7s
  • Wind
    11mph, 13mph gusts
  • Sea Temp 45°f
  • Ar Temp 44°f
  • Sea Pressure 1014.3mb

More Historic Weather Station data

Upgrade to MSW Pro to gain access to the past 30 days of data for over 8000 Wavebouys and Weather Stations around the globe.

Join Pro

Comparision Forecast

View Surf forecast
   
Sáb 10/25 1:50 6ft 10s 7s 11 13 mph 1014.3mb 45f 44f
12:50 6ft 9s 7s 13 16 mph 1014.4mb 45f 44f
Sex 10/24 11:50 6ft 10s 7s 13 16 mph 1014.8mb 45f 44f
10:50 6.5ft 10s 7s 7 9 mph 1015.4mb 45f 43f
9:50 6ft 11s 7s 7
mph
1015.6mb 44f 43f
8:50 6ft 9s 7s 7 9 mph 1015.9mb 44f 41f
7:50 6.5ft 10s 7s 2 4 mph 1015.8mb 44f 43f
6:50 7ft 11s 7s 4
mph
1015.5mb 44f 42f
5:50 7ft 9s 7s 4 7 mph 1015.4mb 44f 43f
4:50 7ft 11s 7s 2 4 mph 1015.7mb 44f 42f
3:50 7ft 8s 7s 7 9 mph 1015.6mb 44f 43f
2:50 7ft 8s 7s 7 9 mph 1015.8mb 44f 43f
1:50 8ft 10s 8s 7 9 mph 1016mb 44f 44f
12:50 8.5ft 11s 8s 4 7 mph 1016.3mb 44f 44f
11:50 8.5ft 10s 8s 2 4 mph 1016.3mb 44f 43f
10:50 9.5ft 11s 8s 2 4 mph 1016.3mb 44f 43f
9:50 9ft 10s 8s 4
mph
1016.5mb 44f 44f
8:50 11ft 11s 8s 2 4 mph 1016.4mb 44f 44f
7:50 9ft 12s 8s 4 7 mph 1016.2mb 44f 44f
6:50 9.5ft 11s 8s 7 9 mph 1016.2mb 45f 44f
5:50 10ft 12s 8s 7 9 mph 1016.1mb 45f 44f
4:50 11ft 8s 8s 7 9 mph 1015.7mb 45f 44f
3:50 11ft 12s 8s 9 13 mph 1015.1mb 45f 44f
2:50 11ft 9s 8s 11 13 mph 1014.7mb 44f 44f
1:50 11.5ft 10s 8s 11 16 mph 1014.5mb 44f 44f
12:50 13ft 10s 8s 11 13 mph 1014.4mb 44f 44f
Qui 10/23 11:50 11.5ft 10s 7s 25 29 mph 1013.8mb 44f 46f
10:50 11ft 10s 7s 27 31 mph 1014.1mb 44f 46f
9:50 9ft 9s 6s 25 31 mph 1014.3mb 44f 46f
8:50 9ft 8s 6s 25 29 mph 1014.4mb 44f 45f
7:50 9ft 8s 6s 27 34 mph 1014.5mb 44f 46f
6:50 8ft 8s 6s 25 34 mph 1014.8mb 44f 46f
5:50 8ft 7s 6s 25 29 mph 1015.1mb 44f 46f
4:50 6.5ft 6s 5s 22 27 mph 1015.6mb 44f 46f
3:50 7ft 6s 6s 22 27 mph 1016mb 44f 46f
2:50 6.5ft 6s 6s 22 27 mph 1016.5mb 44f 46f
1:50 6.5ft 9s 6s 22 27 mph 1017.3mb 44f 46f
12:50 6ft 9s 6s 22 27 mph 1017.8mb 44f 45f
11:50 6ft 8s 6s 20 25 mph 1018.1mb 44f 45f
10:50 6ft 10s 6s 20 25 mph 1018.5mb 44f 45f
9:50 6ft 9s 6s 18 22 mph 1018.9mb 44f 45f
8:50 6ft 10s 6s 18 22 mph 1019.3mb 44f 45f
7:50 6ft 10s 6s 16 20 mph 1019.5mb 44f 45f
6:50 6.5ft 9s 6s 16 20 mph 1019.7mb 44f 45f
5:50 7ft 10s 7s 16 20 mph 1020mb 44f 44f
4:50 7ft 9s 7s 18 20 mph 1020.2mb 44f 44f
3:50 7.5ft 10s 7s 16 18 mph 1020.7mb 44f 43f
2:50 8ft 10s 7s 11 16 mph 1020.7mb 44f 42f
1:50 10ft 10s 8s 11 13 mph 1021.1mb 44f 42f
12:50 10ft 10s 7s 11 16 mph 1021.4mb 44f 42f
Qua 10/22 11:50 10ft 10s 7s 13 16 mph 1021.9mb 45f 42f
10:50 10.5ft 11s 7s 11 13 mph 1021.8mb 45f 42f
9:50 11ft 11s 8s 13 18 mph 1021.4mb 44f 42f
8:50 11ft 11s 8s 13 18 mph 1021.1mb 44f 41f
7:50 11ft 11s 8s 16 20 mph 1020.6mb 45f 41f
6:50 12.5ft 11s 8s 25 31 mph 1019.8mb 44f 42f
5:50 12ft 11s 7s 22 27 mph 1019.1mb 44f 42f
4:50 13ft 11s 7s 22 31 mph 1018.4mb 45f 41f
3:50 12.5ft 11s 7s 25 31 mph 1017.5mb 45f 42f
2:50 13.5ft 10s 7s 25 29 mph 1017.1mb 45f 41f
1:50 12.5ft 11s 7s 25 31 mph 1016.1mb 45f 42f
12:50 14.5ft 11s 8s 27 40 mph 1015.5mb 45f 41f
11:50 15.5ft 11s 8s 27 34 mph 1014.9mb 45f 41f
10:50 15.5ft 11s 8s 25 31 mph 1014.5mb 45f 41f
9:50 15.5ft 11s 8s 27 31 mph 1014.1mb 45f 40f
8:50 15.5ft 11s 8s 31 36 mph 1013.5mb 45f 41f
7:50 16ft 11s 8s 31 43 mph 1013mb 45f 41f
6:50 16ft 11s 8s 29 36 mph 1012.6mb 45f 42f
5:50 15.5ft 10s 8s 27 34 mph 1011.9mb 45f 42f
4:50 15.5ft 10s 8s 31 40 mph 1011.5mb 45f 39f
3:50 15ft 11s 8s 29 36 mph 1011mb 45f 42f
2:50 15ft 9s 7s 27 34 mph 1010.5mb 45f 41f
1:50 12ft 9s 7s 29 38 mph 1009.9mb 45f 40f
12:50 13ft 11s 7s 27 31 mph 1009.8mb 45f 39f
Ter 10/21 11:50 15ft 10s 8s 29 36 mph 1009.3mb 45f 40f
10:50 14ft 10s 7s 36 45 mph 1008.9mb 45f 39f
9:50 13ft 10s 7s 31 43 mph 1008.8mb 45f 41f
8:50 13ft 10s 7s 31 36 mph 1008.6mb 45f 41f
7:50 13.5ft 10s 7s 34 43 mph 1008.2mb 45f 39f
6:50 12ft 10s 7s 27 34 mph 1008.2mb 45f 40f
5:50 12.5ft 10s 7s 22 29 mph 1008.2mb 45f 38f
4:50 13ft 10s 7s 29 38 mph 1007.8mb 45f 37f
3:50 13ft 10s 7s 25 29 mph 1007.7mb 45f 38f
2:50 14ft 10s 8s 25 31 mph 1007.3mb 45f 38f
1:50 12ft 10s 7s 25 31 mph 1007mb 45f 40f
12:50 15ft 11s 8s 27 34 mph 1006.9mb 45f 40f
11:50 14ft 11s 8s 22 29 mph 1006.9mb 45f 39f
10:50 14ft 11s 8s 27 34 mph 1006.6mb 45f 38f
9:50 14ft 10s 8s 27 34 mph 1006mb 45f 41f
8:50 15ft 11s 8s 22 29 mph 1006.1mb 45f 39f
7:50 14ft 10s 8s 29 34 mph 1005.1mb 45f 41f
6:50 14ft 11s 7s 29 36 mph 1004.5mb 45f 41f
5:50 15.5ft 10s 8s 29 36 mph 1004mb 45f 41f
4:50 14ft 11s 7s 29 38 mph 1003.7mb 45f 40f
3:50 15ft 10s 8s 31 38 mph 1002.7mb 45f 40f